Excellent Pescadores — HORK — position and weather

sailwx.info

Track history (hours):
 
Tides and Currents Weather Stations Pressure Air Temp Water Temp Dewpoint Dewpoint Depression Visibility Wind Speed Wind Dir Waves Ship Positions

Excellent Pescadores

Last reported at 2017-Sep-10 07:39 UTC. Time now 2017-Oct-18 06:01 UTC.
Position N 29°53' E 123°29'.
Warning: this ship's position is 37 days out of date.

Length 148 m; draft 7.6 m.

Type: Cargo ship. MMSI: 356291000.

Date/timePositionNaut miles runAvg speedWind from/ knotsBaromVisibWave heightAir tempDewpointWater temp
2017-Sep-10 07:39N 29°53' E 123°29'212.0
2017-Sep-10 07:29N 29°55' E 123°28'11510.7
2017-Sep-09 20:44N 31°16' E 121°53'312.3
2017-Sep-09 20:29N 31°17' E 121°49'612.4
2017-Sep-09 20:00N 31°19' E 121°43'611.3
2017-Sep-09 19:30N 31°22' E 121°37'5 9.9
2017-Sep-09 19:00N 31°25' E 121°32'4 8.4
2017-Sep-09 18:30N 31°27' E 121°28'4 7.4
2017-Sep-09 18:00N 31°30' E 121°25'5 9.2
2017-Sep-09 17:30N 31°32' E 121°21'5 9.6
2017-Sep-09 17:00N 31°36' E 121°17'611.8
2017-Sep-09 16:29N 31°40' E 121°12'713.5
2017-Sep-09 16:00N 31°44' E 121°06'3411.7
2017-Sep-09 13:08N 32°01' E 120°32'413.3
2017-Sep-09 12:52N 32°02' E 120°28'410.8
2017-Sep-09 12:30N 32°01' E 120°23'5 9.5
2017-Sep-09 12:00N 31°58' E 120°19'612.3
2017-Sep-09 11:30N 31°56' E 120°12'510.4
2017-Sep-09 11:00N 31°57' E 120°06'611.2
2017-Sep-09 10:28N 31°59' E 119°59'611.1
2017-Sep-09 09:58N 32°04' E 119°56'  
Track history (hours):
 
Tides and Currents Weather Stations Pressure Air Temp Water Temp Dewpoint Dewpoint Depression Visibility Wind Speed Wind Dir Waves Ship Positions

Excellent Pescadores

Last reported at 2017-Sep-10 07:39 UTC. Time now 2017-Oct-18 06:01 UTC.
Position N 29°53' E 123°29'.
Warning: this ship's position is 37 days out of date.

Length 148 m; draft 7.6 m.

Type: Cargo ship. MMSI: 356291000.

Date/timePositionNaut miles runAvg speedWind from/ knotsBaromVisibWave heightAir tempDewpointWater temp
2017-Sep-10 07:39N 29°53' E 123°29'212.0
2017-Sep-10 07:29N 29°55' E 123°28'11510.7
2017-Sep-09 20:44N 31°16' E 121°53'312.3
2017-Sep-09 20:29N 31°17' E 121°49'612.4
2017-Sep-09 20:00N 31°19' E 121°43'611.3
2017-Sep-09 19:30N 31°22' E 121°37'5 9.9
2017-Sep-09 19:00N 31°25' E 121°32'4 8.4
2017-Sep-09 18:30N 31°27' E 121°28'4 7.4
2017-Sep-09 18:00N 31°30' E 121°25'5 9.2
2017-Sep-09 17:30N 31°32' E 121°21'5 9.6
2017-Sep-09 17:00N 31°36' E 121°17'611.8
2017-Sep-09 16:29N 31°40' E 121°12'713.5
2017-Sep-09 16:00N 31°44' E 121°06'3411.7
2017-Sep-09 13:08N 32°01' E 120°32'413.3
2017-Sep-09 12:52N 32°02' E 120°28'410.8
2017-Sep-09 12:30N 32°01' E 120°23'5 9.5
2017-Sep-09 12:00N 31°58' E 120°19'612.3
2017-Sep-09 11:30N 31°56' E 120°12'510.4
2017-Sep-09 11:00N 31°57' E 120°06'611.2
2017-Sep-09 10:28N 31°59' E 119°59'611.1
2017-Sep-09 09:58N 32°04' E 119°56'  

Dump ship's entire track history